Time;durP1;ratioP1;P1;durP2;ratioP2;P2;SDS_P1;SDS_P2;PMS_P1;PMS_P2;Temp;Humidity;BMP_temperature;BMP_pressure;BME280_temperature;BME280_humidity;BME280_pressure;Samples;Min_cycle;Max_cycle;Signal;HPM_P1;HPM_P2
2024/04/15 00:01:47;;;;;;;5.80;3.58;;;17.00;99.90;;;;;;6534765;21;20000;-96
2024/04/15 00:04:18;;;;;;;6.57;3.50;;;17.00;99.90;;;;;;6580960;21;20000;-96
2024/04/15 00:06:46;;;;;;;10.20;3.60;;;17.00;99.90;;;;;;6534708;21;20011;-95
2024/04/15 00:09:17;;;;;;;7.75;4.07;;;16.90;99.90;;;;;;6532624;21;19997;-95
2024/04/15 00:11:46;;;;;;;6.53;3.70;;;16.90;99.90;;;;;;6534418;21;20420;-96
2024/04/15 00:14:20;;;;;;;7.22;4.40;;;16.90;99.90;;;;;;6491276;21;20016;-95
2024/04/15 00:16:48;;;;;;;7.75;4.07;;;16.80;99.90;;;;;;6533194;21;20356;-96
2024/04/15 00:19:20;;;;;;;7.50;3.78;;;16.80;99.90;;;;;;6533909;21;19996;-96
2024/04/15 00:21:48;;;;;;;7.88;3.83;;;16.80;99.90;;;;;;6533369;21;20046;-96
2024/04/15 00:24:19;;;;;;;6.13;3.75;;;16.80;99.90;;;;;;6534152;21;20001;-96
2024/04/15 00:26:47;;;;;;;7.70;3.97;;;16.70;99.90;;;;;;6533985;21;20020;-96
2024/04/15 00:29:22;;;;;;;9.52;3.97;;;16.70;99.90;;;;;;6585585;21;20087;-96
2024/04/15 00:31:50;;;;;;;9.85;3.92;;;16.70;99.90;;;;;;6542907;21;20052;-96
2024/04/15 00:34:22;;;;;;;8.85;4.00;;;16.70;99.90;;;;;;6537505;21;20056;-96
2024/04/15 00:36:50;;;;;;;9.50;3.55;;;16.60;99.90;;;;;;6533041;21;20015;-96
2024/04/15 00:39:21;;;;;;;8.65;3.75;;;16.70;99.90;;;;;;6578728;21;20005;-96
2024/04/15 00:41:49;;;;;;;11.20;4.53;;;16.60;99.90;;;;;;6532981;21;20078;-96
2024/04/15 00:44:22;;;;;;;10.15;4.28;;;16.60;99.90;;;;;;6535267;21;20014;-96
2024/04/15 00:46:51;;;;;;;9.88;3.67;;;16.60;99.90;;;;;;6534013;21;20016;-95
2024/04/15 00:49:23;;;;;;;6.97;4.20;;;16.60;99.90;;;;;;6532897;21;20376;-96
2024/04/15 00:51:51;;;;;;;9.48;4.40;;;16.60;99.90;;;;;;6532049;21;20757;-96
2024/04/15 00:54:22;;;;;;;10.77;4.60;;;16.60;99.90;;;;;;6533053;21;20004;-95
2024/04/15 00:56:50;;;;;;;8.43;4.07;;;16.40;99.90;;;;;;6533666;21;20012;-96
2024/04/15 00:59:25;;;;;;;17.38;5.97;;;16.40;99.90;;;;;;6533773;21;20008;-96
2024/04/15 01:01:53;;;;;;;11.00;4.65;;;16.50;99.90;;;;;;6531360;21;20004;-96
2024/04/15 01:04:26;;;;;;;8.57;4.25;;;16.40;99.90;;;;;;6533021;21;19996;-96
2024/04/15 01:06:55;;;;;;;9.90;4.32;;;16.40;99.90;;;;;;6532192;21;20000;-96
2024/04/15 01:09:26;;;;;;;13.80;4.57;;;16.30;99.90;;;;;;6578896;21;20372;-96
2024/04/15 01:11:54;;;;;;;7.83;4.00;;;16.30;99.90;;;;;;6533335;21;20008;-96
2024/04/15 01:14:29;;;;;;;8.88;4.30;;;16.30;99.90;;;;;;6535601;21;20760;-96
2024/04/15 01:16:57;;;;;;;7.88;4.00;;;16.40;99.90;;;;;;6577815;21;20011;-96
2024/04/15 01:19:29;;;;;;;7.57;4.38;;;16.50;99.90;;;;;;6531039;21;20333;-96
2024/04/15 01:21:57;;;;;;;8.02;4.32;;;16.30;99.90;;;;;;6553288;21;20000;-96
2024/04/15 01:24:31;;;;;;;11.35;4.43;;;16.20;99.90;;;;;;6559153;21;20044;-96
2024/04/15 01:26:59;;;;;;;10.35;4.50;;;16.30;99.90;;;;;;6557155;21;19996;-96
2024/04/15 01:29:31;;;;;;;9.93;4.68;;;16.30;99.90;;;;;;6542688;21;20599;-96
2024/04/15 01:31:59;;;;;;;7.68;4.60;;;16.20;99.90;;;;;;6532731;21;20023;-96
2024/04/15 01:34:30;;;;;;;5.95;4.38;;;16.10;99.90;;;;;;6531827;21;20376;-96
2024/04/15 01:36:58;;;;;;;6.75;4.18;;;16.00;99.90;;;;;;6533233;21;20015;-96
2024/04/15 01:39:33;;;;;;;10.55;4.90;;;16.10;99.90;;;;;;6533229;21;19996;-96
2024/04/15 01:42:02;;;;;;;8.52;4.75;;;16.10;99.90;;;;;;6533694;21;20433;-95
2024/04/15 01:44:33;;;;;;;7.93;4.45;;;16.10;99.90;;;;;;6578200;21;19997;-95
2024/04/15 01:47:01;;;;;;;9.20;4.65;;;16.10;99.90;;;;;;6533023;21;20006;-95
2024/04/15 01:49:32;;;;;;;10.15;4.78;;;16.10;99.90;;;;;;6532693;21;20012;-95
2024/04/15 01:52:00;;;;;;;7.28;4.68;;;15.90;99.90;;;;;;6577749;21;20027;-95
2024/04/15 01:54:35;;;;;;;9.07;4.32;;;15.90;99.90;;;;;;6577617;21;20015;-94
2024/04/15 01:57:03;;;;;;;11.25;5.43;;;15.90;99.90;;;;;;6533405;21;20004;-95
2024/04/15 01:59:34;;;;;;;10.93;5.20;;;15.90;99.90;;;;;;6532226;21;20016;-95
2024/04/15 02:02:02;;;;;;;10.98;4.93;;;15.80;99.90;;;;;;6577994;21;20012;-95
2024/04/15 02:04:35;;;;;;;9.32;4.72;;;15.80;99.90;;;;;;6508930;21;20692;-95
2024/04/15 02:07:04;;;;;;;9.68;5.07;;;15.80;99.90;;;;;;6576688;21;20293;-95
2024/04/15 02:09:37;;;;;;;11.65;4.80;;;15.80;99.90;;;;;;6576277;21;20044;-95
2024/04/15 02:12:06;;;;;;;6.65;4.45;;;15.80;99.90;;;;;;6576687;21;20774;-95
2024/04/15 02:14:37;;;;;;;8.30;4.55;;;15.80;99.90;;;;;;6577445;21;20058;-96
2024/04/15 02:17:06;;;;;;;7.47;4.35;;;15.80;99.90;;;;;;6591171;21;20012;-96
2024/04/15 02:19:37;;;;;;;8.80;3.97;;;15.70;99.90;;;;;;6587848;21;20000;-96
2024/04/15 02:22:06;;;;;;;7.33;5.57;;;15.70;99.90;;;;;;6586191;21;20040;-96
2024/04/15 02:24:40;;;;;;;10.15;4.43;;;15.70;99.90;;;;;;6589941;21;20272;-96
2024/04/15 02:27:08;;;;;;;11.70;4.78;;;15.70;99.90;;;;;;6596751;21;20001;-96
2024/04/15 02:29:39;;;;;;;8.93;5.20;;;15.70;99.90;;;;;;6588941;21;20009;-96
2024/04/15 02:32:08;;;;;;;9.13;4.72;;;15.70;99.90;;;;;;6581746;21;20094;-96
2024/04/15 02:34:39;;;;;;;13.10;4.68;;;15.70;99.90;;;;;;6585550;21;20011;-96
2024/04/15 02:37:08;;;;;;;10.52;5.00;;;15.70;99.90;;;;;;6595050;21;20029;-96
2024/04/15 02:39:41;;;;;;;10.65;4.70;;;15.60;99.90;;;;;;6595601;21;20478;-96
2024/04/15 02:42:09;;;;;;;8.93;4.60;;;15.60;99.90;;;;;;6598702;21;20001;-96
2024/04/15 02:44:41;;;;;;;7.95;5.20;;;15.60;99.90;;;;;;6594299;21;19996;-96
2024/04/15 02:47:09;;;;;;;10.00;5.18;;;15.60;99.90;;;;;;6597609;21;20016;-96
2024/04/15 02:49:41;;;;;;;9.00;4.50;;;15.50;99.90;;;;;;6594017;21;19996;-96
2024/04/15 02:52:09;;;;;;;11.40;4.93;;;15.50;99.90;;;;;;6551425;21;19997;-96
2024/04/15 02:54:43;;;;;;;6.97;4.30;;;15.50;99.90;;;;;;6594916;21;20239;-96
2024/04/15 02:57:11;;;;;;;11.85;5.80;;;15.50;99.90;;;;;;6593367;21;20305;-96
2024/04/15 02:59:42;;;;;;;8.40;4.75;;;15.50;99.90;;;;;;6587040;21;20000;-96
2024/04/15 03:02:10;;;;;;;8.88;4.90;;;15.50;99.90;;;;;;6593139;21;20636;-96
2024/04/15 03:04:41;;;;;;;11.45;5.60;;;15.50;99.90;;;;;;6597648;21;20383;-96
2024/04/15 03:07:10;;;;;;;9.02;5.70;;;15.40;99.90;;;;;;6546449;21;20028;-96
2024/04/15 03:09:44;;;;;;;10.07;4.85;;;15.50;99.90;;;;;;6542453;21;20004;-96
2024/04/15 03:12:13;;;;;;;10.18;4.70;;;15.40;99.90;;;;;;6544178;21;20011;-96
2024/04/15 03:14:45;;;;;;;8.82;4.25;;;15.40;99.90;;;;;;6588799;21;20377;-96
2024/04/15 03:17:13;;;;;;;8.52;4.55;;;15.40;99.90;;;;;;6541638;21;20016;-96
2024/04/15 03:19:48;;;;;;;8.90;4.60;;;15.40;99.90;;;;;;6544712;21;19996;-96
2024/04/15 03:22:17;;;;;;;8.35;4.93;;;15.30;99.90;;;;;;6593091;21;20012;-96
2024/04/15 03:24:52;;;;;;;6.93;4.70;;;15.40;99.90;;;;;;6545983;21;20011;-96
2024/04/15 03:27:22;;;;;;;9.70;5.60;;;14.40;99.90;;;;;;6555605;21;20008;-96
2024/04/15 03:29:53;;;;;;;8.68;4.20;;;15.30;99.90;;;;;;6592496;21;19997;-96
2024/04/15 03:32:21;;;;;;;9.38;5.00;;;15.30;99.90;;;;;;6593803;21;20774;-96
2024/04/15 03:34:53;;;;;;;7.68;4.47;;;15.30;99.90;;;;;;6546897;21;20804;-96
2024/04/15 03:37:24;;;;;;;7.35;4.95;;;15.30;99.90;;;;;;6547767;21;20008;-96
2024/04/15 03:39:59;;;;;;;12.80;5.10;;;15.30;99.90;;;;;;6551212;21;20001;-96
2024/04/15 03:42:31;;;;;;;13.68;5.47;;;15.20;99.90;;;;;;6549776;21;20236;-96
2024/04/15 03:45:02;;;;;;;7.28;4.90;;;15.20;99.90;;;;;;6594769;21;20004;-96
2024/04/15 03:47:30;;;;;;;9.95;4.90;;;15.20;99.90;;;;;;6594042;21;20012;-96
2024/04/15 03:50:02;;;;;;;8.40;5.57;;;15.10;99.90;;;;;;6549526;21;20059;-96
2024/04/15 03:52:31;;;;;;;13.57;4.75;;;15.10;99.90;;;;;;6602266;21;20039;-96
2024/04/15 03:55:05;;;;;;;10.77;5.22;;;15.20;99.90;;;;;;6561158;21;20000;-95
2024/04/15 03:57:37;;;;;;;7.05;4.90;;;15.20;99.90;;;;;;6553313;21;20003;-96
2024/04/15 04:00:10;;;;;;;9.05;4.57;;;15.10;99.90;;;;;;6549326;21;20036;-96
2024/04/15 04:02:38;;;;;;;8.35;5.20;;;15.10;99.90;;;;;;6546904;21;19996;-96
2024/04/15 04:05:11;;;;;;;8.43;5.15;;;15.10;99.90;;;;;;6546313;21;20015;-96
2024/04/15 04:07:39;;;;;;;12.80;4.87;;;15.10;99.90;;;;;;6585820;21;19992;-96
2024/04/15 04:10:14;;;;;;;12.60;4.95;;;15.10;99.90;;;;;;6584458;21;20004;-96
2024/04/15 04:12:43;;;;;;;8.82;4.55;;;15.10;99.90;;;;;;6583650;21;20696;-96
2024/04/15 04:15:13;;;;;;;7.78;5.05;;;15.10;99.90;;;;;;6535882;21;20015;-96
2024/04/15 04:17:43;;;;;;;11.57;4.65;;;15.10;99.90;;;;;;6539310;21;20056;-96
2024/04/15 04:20:14;;;;;;;9.75;4.63;;;15.10;99.90;;;;;;6582830;21;20015;-96
2024/04/15 04:22:42;;;;;;;11.25;4.95;;;15.10;99.90;;;;;;6584892;21;20018;-96
2024/04/15 04:25:15;;;;;;;10.52;4.82;;;15.10;99.90;;;;;;6544757;21;20005;-96
2024/04/15 04:27:43;;;;;;;9.63;4.80;;;15.10;99.90;;;;;;6558449;21;20016;-96
2024/04/15 04:30:15;;;;;;;8.23;4.85;;;15.10;99.90;;;;;;6516441;21;20000;-96
2024/04/15 04:32:43;;;;;;;8.43;4.95;;;15.10;99.90;;;;;;6541754;21;20049;-96
2024/04/15 04:35:13;;;;;;;10.35;4.97;;;15.20;99.90;;;;;;6533718;21;20016;-95
2024/04/15 04:37:41;;;;;;;7.97;4.40;;;15.20;99.90;;;;;;6579709;21;20000;-96
2024/04/15 04:40:15;;;;;;;14.38;5.15;;;15.20;99.90;;;;;;6534995;21;20014;-96
2024/04/15 04:42:43;;;;;;;11.68;4.53;;;15.20;99.90;;;;;;6581932;21;20001;-96
2024/04/15 04:45:13;;;;;;;10.35;4.82;;;15.30;99.90;;;;;;6578614;21;20015;-96
2024/04/15 04:47:41;;;;;;;10.57;4.47;;;15.30;99.90;;;;;;6533909;21;20364;-96
2024/04/15 04:50:12;;;;;;;7.75;4.30;;;15.30;99.90;;;;;;6531826;21;20004;-96
2024/04/15 04:52:40;;;;;;;17.95;5.90;;;15.30;99.90;;;;;;6532462;21;20011;-94
2024/04/15 04:55:10;;;;;;;13.00;4.13;;;15.30;99.90;;;;;;6529252;21;20343;-95
2024/04/15 04:57:41;;;;;;;12.50;4.22;;;15.40;99.90;;;;;;6580445;21;20329;-96
2024/04/15 05:00:13;;;;;;;13.95;4.28;;;15.40;99.90;;;;;;6532652;21;20001;-96
2024/04/15 05:02:40;;;;;;;12.40;4.10;;;15.40;99.90;;;;;;6577452;21;20001;-96
2024/04/15 05:05:11;;;;;;;9.60;4.22;;;15.40;99.90;;;;;;6534632;21;20004;-96
2024/04/15 05:07:40;;;;;;;7.85;4.25;;;15.40;99.90;;;;;;6578148;21;20063;-96
2024/04/15 05:10:10;;;;;;;13.25;4.55;;;15.50;99.90;;;;;;6577240;21;20011;-96
2024/04/15 05:12:41;;;;;;;8.18;4.00;;;15.50;99.90;;;;;;6577619;21;20008;-96
2024/04/15 05:15:11;;;;;;;8.57;3.95;;;15.50;99.90;;;;;;6531068;21;20012;-96
2024/04/15 05:17:40;;;;;;;13.20;4.10;;;15.60;99.90;;;;;;6531478;21;20032;-96
2024/04/15 05:20:11;;;;;;;12.93;4.25;;;15.60;99.90;;;;;;6535479;21;20042;-96
2024/04/15 05:22:39;;;;;;;18.23;4.45;;;15.70;99.90;;;;;;6535099;21;20001;-96
2024/04/15 05:25:10;;;;;;;20.33;5.95;;;15.60;99.90;;;;;;6578338;21;20078;-96
2024/04/15 05:27:41;;;;;;;11.07;3.35;;;15.60;99.90;;;;;;6533958;21;20029;-96
2024/04/15 05:30:12;;;;;;;9.68;3.22;;;15.70;99.90;;;;;;6578908;21;20411;-96
2024/04/15 05:32:40;;;;;;;13.82;3.95;;;15.80;99.90;;;;;;6528540;21;20000;-96
2024/04/15 05:35:11;;;;;;;10.07;3.67;;;15.80;99.90;;;;;;6576315;21;20015;-96
2024/04/15 05:37:39;;;;;;;10.02;2.80;;;15.80;99.90;;;;;;6534199;21;19996;-96
2024/04/15 05:40:11;;;;;;;10.70;2.67;;;15.80;99.90;;;;;;6530493;21;20765;-96
2024/04/15 05:42:41;;;;;;;12.55;3.40;;;15.90;99.90;;;;;;6566445;21;20016;-96
2024/04/15 05:45:12;;;;;;;7.78;3.47;;;15.90;99.90;;;;;;6533571;21;20012;-96
2024/04/15 05:47:40;;;;;;;6.47;2.90;;;15.90;99.90;;;;;;6578260;21;20318;-96
2024/04/15 05:50:11;;;;;;;10.77;3.33;;;16.00;99.90;;;;;;6535791;21;20011;-96
2024/04/15 05:52:38;;;;;;;8.85;3.40;;;16.00;99.90;;;;;;6581737;21;20008;-96
2024/04/15 05:55:09;;;;;;;8.95;2.53;;;16.10;99.90;;;;;;6538375;21;20004;-96
2024/04/15 05:57:42;;;;;;;12.30;3.72;;;16.10;99.90;;;;;;6592823;21;20007;-96
2024/04/15 06:00:16;;;;;;;10.57;3.45;;;16.20;99.90;;;;;;6587557;21;20013;-96
2024/04/15 06:02:44;;;;;;;8.02;2.97;;;16.10;99.90;;;;;;6552785;21;20476;-96
2024/04/15 06:05:15;;;;;;;18.95;3.88;;;15.10;99.90;;;;;;6540856;21;20000;-96
2024/04/15 06:07:43;;;;;;;16.67;3.67;;;17.10;99.90;;;;;;6537053;21;20008;-96
2024/04/15 06:10:14;;;;;;;86.40;7.93;;;16.30;99.90;;;;;;6551701;21;19993;-96
2024/04/15 06:12:45;;;;;;;17.83;3.70;;;16.30;99.90;;;;;;6552194;21;20000;-96
2024/04/15 06:15:15;;;;;;;10.82;3.65;;;16.40;99.90;;;;;;6593773;21;20011;-96
2024/04/15 06:17:44;;;;;;;132.75;17.55;;;16.40;99.90;;;;;;6559312;21;20007;-96
2024/04/15 06:20:15;;;;;;;132.25;16.65;;;16.90;99.90;;;;;;6543237;21;20075;-79
2024/04/15 06:22:45;;;;;;;93.25;13.10;;;16.60;99.90;;;;;;6579805;21;20056;-79
2024/04/15 06:25:15;;;;;;;71.68;10.45;;;16.70;99.90;;;;;;6587659;21;20012;-79
2024/04/15 06:27:45;;;;;;;20.65;4.38;;;16.70;99.90;;;;;;6590823;21;20001;-80
2024/04/15 06:30:16;;;;;;;10.63;3.40;;;16.70;99.90;;;;;;6544851;21;20007;-81
2024/04/15 06:32:44;;;;;;;101.43;16.42;;;17.00;99.90;;;;;;6588801;21;20344;-80
2024/04/15 06:35:14;;;;;;;15.40;4.55;;;17.00;99.90;;;;;;6546080;21;20052;-79
2024/04/15 06:37:42;;;;;;;53.88;10.80;;;17.10;99.90;;;;;;6544768;21;20016;-80
2024/04/15 06:40:13;;;;;;;14.75;5.57;;;17.60;99.90;;;;;;6591505;21;20004;-80
2024/04/15 06:42:41;;;;;;;43.97;7.95;;;17.20;99.90;;;;;;6587266;21;20420;-79
2024/04/15 06:45:14;;;;;;;8.65;4.03;;;17.30;99.90;;;;;;6538723;21;20078;-78
2024/04/15 06:47:46;;;;;;;9.80;3.80;;;17.30;99.90;;;;;;6537665;21;20015;-79
2024/04/15 06:50:26;;;;;;;8.82;3.50;;;17.40;99.90;;;;;;6550245;21;20005;-82
2024/04/15 06:52:54;;;;;;;6.15;2.95;;;17.50;99.90;;;;;;6488939;22;20022;-81
2024/04/15 06:55:29;;;;;;;9.50;3.30;;;17.60;99.90;;;;;;6490807;22;20081;-82
2024/04/15 06:57:59;;;;;;;6.27;3.40;;;17.70;99.90;;;;;;6447662;22;20013;-85
2024/04/15 07:00:35;;;;;;;10.82;3.50;;;17.70;99.90;;;;;;6449327;22;20006;-83
2024/04/15 07:03:03;;;;;;;9.73;3.00;;;17.80;99.90;;;;;;6488644;22;20002;-85
2024/04/15 07:05:34;;;;;;;11.32;3.20;;;17.80;99.90;;;;;;6448237;22;19998;-83
2024/04/15 07:08:03;;;;;;;5.67;3.23;;;17.90;99.90;;;;;;6447628;22;20002;-82
2024/04/15 07:10:35;;;;;;;6.75;3.05;;;18.20;99.90;;;;;;6447843;22;20257;-82
2024/04/15 07:13:05;;;;;;;4.93;3.00;;;18.00;99.90;;;;;;6490347;22;20026;-82
2024/04/15 07:15:39;;;;;;;7.53;3.03;;;18.30;99.90;;;;;;6491281;22;20021;-83
2024/04/15 07:18:07;;;;;;;6.10;3.50;;;18.10;99.90;;;;;;6489186;22;20009;-81
2024/04/15 07:20:47;;;;;;;5.57;3.10;;;18.30;99.90;;;;;;6489298;22;20005;-83
2024/04/15 07:23:20;;;;;;;9.05;3.20;;;18.20;99.90;;;;;;6489653;22;20005;-83
2024/04/15 07:25:58;;;;;;;5.78;2.92;;;18.30;99.90;;;;;;6447537;22;19998;-84
2024/04/15 07:28:27;;;;;;;8.68;3.90;;;18.40;99.90;;;;;;6489944;22;19998;-82
2024/04/15 07:31:07;;;;;;;10.38;3.85;;;18.40;99.90;;;;;;6513160;21;20004;-80
2024/04/15 07:33:35;;;;;;;7.93;3.50;;;18.60;99.90;;;;;;6549959;21;20016;-84
2024/04/15 07:36:06;;;;;;;7.32;3.20;;;18.60;99.90;;;;;;6550768;21;20001;-83
2024/04/15 07:38:35;;;;;;;6.70;3.73;;;18.50;99.70;;;;;;6549500;21;20001;-83
2024/04/15 07:41:08;;;;;;;4.53;2.75;;;18.50;99.40;;;;;;6549349;21;20016;-81
2024/04/15 07:43:37;;;;;;;10.93;3.22;;;19.10;99.90;;;;;;6593494;21;20428;-82
2024/04/15 07:46:10;;;;;;;6.85;3.30;;;18.60;99.90;;;;;;6592263;21;20019;-82
2024/04/15 07:48:44;;;;;;;5.40;3.08;;;18.50;99.20;;;;;;6548949;21;20000;-83
2024/04/15 07:51:13;;;;;;;6.82;3.55;;;18.70;99.70;;;;;;6546845;21;20001;-84
2024/04/15 07:53:51;;;;;;;5.43;2.75;;;18.70;99.90;;;;;;6546857;21;20421;-81
2024/04/15 07:56:34;;;;;;;4.28;2.63;;;18.70;99.60;;;;;;6548591;21;19997;-82
2024/04/15 07:59:09;;;;;;;8.07;3.30;;;18.80;98.20;;;;;;6545793;21;19992;-79
2024/04/15 08:01:42;;;;;;;9.18;3.30;;;18.90;98.30;;;;;;6543863;21;19996;-79
2024/04/15 08:04:15;;;;;;;6.10;2.50;;;19.00;98.00;;;;;;6544457;21;20009;-80
2024/04/15 08:06:43;;;;;;;6.47;2.58;;;19.00;97.80;;;;;;6543287;21;20308;-77
2024/04/15 08:09:20;;;;;;;14.57;3.30;;;19.00;97.90;;;;;;6484146;22;20474;-81
2024/04/15 08:11:50;;;;;;;4.97;3.42;;;18.90;97.50;;;;;;6441137;22;20299;-79
2024/04/15 08:14:22;;;;;;;4.03;2.85;;;19.00;97.90;;;;;;6442115;22;20434;-81
2024/04/15 08:16:55;;;;;;;8.82;3.40;;;19.10;97.60;;;;;;6484422;22;20502;-78
2024/04/15 08:19:34;;;;;;;4.80;3.00;;;19.10;97.10;;;;;;6481718;22;19998;-81
2024/04/15 08:22:03;;;;;;;8.18;3.45;;;19.00;97.80;;;;;;6483144;22;19994;-79
2024/04/15 08:24:33;;;;;;;6.65;3.10;;;19.30;97.90;;;;;;6483668;22;20298;-81
2024/04/15 08:27:03;;;;;;;7.05;3.13;;;19.40;97.90;;;;;;6481966;22;20135;-82
2024/04/15 08:29:40;;;;;;;8.73;3.53;;;19.40;97.30;;;;;;6440099;22;20073;-78
2024/04/15 08:32:13;;;;;;;6.85;3.47;;;19.50;97.70;;;;;;6436084;22;20571;-80
2024/04/15 08:34:44;;;;;;;8.23;3.22;;;19.70;97.80;;;;;;6334094;22;19996;-76
2024/04/15 08:37:12;;;;;;;10.15;4.05;;;19.70;96.70;;;;;;6334295;22;20433;-78
2024/04/15 08:39:48;;;;;;;13.77;3.95;;;19.80;96.80;;;;;;6302582;22;19995;-79
2024/04/15 08:42:39;;;;;;;7.90;3.90;;;19.70;96.20;;;;;;6339175;22;20010;-77
2024/04/15 08:45:23;;;;;;;9.23;3.50;;;19.90;96.50;;;;;;6334737;22;20366;-81
2024/04/15 08:47:58;;;;;;;7.55;3.42;;;20.10;95.90;;;;;;6341804;22;19999;-79
2024/04/15 08:50:30;;;;;;;9.63;3.33;;;20.20;96.20;;;;;;6340723;22;20003;-83
2024/04/15 08:52:59;;;;;;;6.82;3.22;;;20.40;96.00;;;;;;6381852;22;19999;-80
2024/04/15 08:55:33;;;;;;;9.20;4.00;;;20.50;95.30;;;;;;6340828;22;20325;-82
2024/04/15 08:58:05;;;;;;;5.60;2.90;;;20.70;95.20;;;;;;6301566;22;20006;-79
2024/04/15 09:03:31;;;;;;;9.02;3.92;;;21.20;95.20;;;;;;6369448;22;20183;-83
2024/04/15 09:06:00;;;;;;;7.25;3.65;;;21.40;93.90;;;;;;6391256;22;20005;-80
2024/04/15 09:08:39;;;;;;;9.63;3.35;;;21.60;93.20;;;;;;6391094;22;20022;-79
2024/04/15 09:11:07;;;;;;;6.88;3.58;;;21.70;93.80;;;;;;6243871;22;20001;-80
2024/04/15 09:13:41;;;;;;;7.75;3.33;;;22.00;93.70;;;;;;6390319;22;19998;-77
2024/04/15 09:16:10;;;;;;;5.45;3.25;;;22.10;93.10;;;;;;6391596;22;19995;-81
2024/04/15 09:18:47;;;;;;;7.30;3.55;;;22.60;92.90;;;;;;6392260;22;19998;-78
2024/04/15 09:21:20;;;;;;;9.63;3.95;;;22.30;92.50;;;;;;6392077;22;19998;-82
2024/04/15 09:24:05;;;;;;;6.82;3.67;;;22.20;92.50;;;;;;6435509;22;20011;-80
2024/04/15 09:27:38;;;;;;;11.27;4.78;;;22.50;92.40;;;;;;6440242;22;20006;-81
2024/04/15 09:30:12;;;;;;;11.18;5.28;;;22.60;92.30;;;;;;6394850;22;20343;-81
2024/04/15 09:32:48;;;;;;;6.65;3.22;;;23.00;92.20;;;;;;6386364;22;20011;-77
2024/04/15 09:35:20;;;;;;;7.18;3.72;;;22.90;91.20;;;;;;6344566;22;19999;-79
2024/04/15 09:38:01;;;;;;;6.53;3.80;;;23.60;91.40;;;;;;6386783;22;20047;-78
2024/04/15 09:40:36;;;;;;;6.57;3.90;;;22.90;91.30;;;;;;6385142;22;20014;-81
2024/04/15 09:46:06;;;;;;;9.43;4.00;;;23.50;90.70;;;;;;6395370;22;20011;-80
2024/04/15 09:49:46;;;;;;;6.80;3.85;;;23.70;91.10;;;;;;6396412;22;19999;-80
2024/04/15 09:52:44;;;;;;;8.57;4.18;;;23.70;90.30;;;;;;6244978;23;20017;-79
2024/04/15 09:55:59;;;;;;;7.93;5.05;;;23.90;90.30;;;;;;6202035;23;19997;-79
2024/04/15 10:02:02;;;;;;;8.65;4.40;;;24.30;89.40;;;;;;6182062;23;20016;-83
2024/04/15 10:04:40;;;;;;;;;;;24.60;89.10;;;;;;6179807;23;20027;-84
2024/04/15 10:07:14;;;;;;;6.18;3.78;;;24.40;86.40;;;;;;6190068;23;19949;-83
2024/04/15 10:09:48;;;;;;;13.95;4.60;;;24.60;86.10;;;;;;6236902;22;20426;-83
2024/04/15 10:12:19;;;;;;;9.38;3.30;;;24.80;86.90;;;;;;6276343;22;20127;-81
2024/04/15 10:14:50;;;;;;;11.10;3.30;;;24.90;86.40;;;;;;6276008;22;20017;-83
2024/04/15 10:17:18;;;;;;;6.00;3.03;;;25.20;85.50;;;;;;6364600;22;20459;-84
2024/04/15 10:19:50;;;;;;;9.50;3.38;;;25.40;83.70;;;;;;6380472;22;20051;-84
2024/04/15 10:22:17;;;;;;;13.38;4.65;;;25.30;83.40;;;;;;6382516;22;20019;-83
2024/04/15 10:24:50;;;;;;;5.32;3.30;;;24.90;84.10;;;;;;6422213;22;20007;-83
2024/04/15 10:27:18;;;;;;;15.85;4.00;;;24.70;83.20;;;;;;6420376;22;20010;-83
2024/04/15 10:29:52;;;;;;;5.38;2.95;;;25.00;84.30;;;;;;6325110;22;20009;-86
2024/04/15 10:32:25;;;;;;;10.25;3.78;;;25.30;82.30;;;;;;6470532;22;20005;-84
2024/04/15 10:34:56;;;;;;;6.75;3.00;;;25.00;82.60;;;;;;6428794;22;20006;-83
2024/04/15 10:37:29;;;;;;;7.55;3.50;;;24.80;82.40;;;;;;6428006;22;20012;-83
2024/04/15 10:40:06;;;;;;;8.00;3.63;;;25.00;83.60;;;;;;6428523;22;20014;-84
2024/04/15 10:42:34;;;;;;;9.02;3.72;;;24.90;83.50;;;;;;6427729;22;20009;-85
2024/04/15 10:45:05;;;;;;;6.30;2.88;;;25.00;81.60;;;;;;6427948;22;20005;-84
2024/04/15 10:47:33;;;;;;;4.88;3.30;;;25.10;83.20;;;;;;6426935;22;20053;-83
2024/04/15 10:50:03;;;;;;;8.05;3.10;;;25.40;81.90;;;;;;6469131;22;20006;-84
2024/04/15 10:52:32;;;;;;;8.23;3.30;;;25.30;79.90;;;;;;6428864;22;20435;-85
2024/04/15 10:55:06;;;;;;;6.13;2.97;;;25.10;79.70;;;;;;6428323;22;20002;-84
2024/04/15 10:57:34;;;;;;;4.68;2.38;;;25.00;79.30;;;;;;6480234;21;20353;-85
2024/04/15 11:00:04;;;;;;;5.88;2.50;;;25.10;80.20;;;;;;6530888;21;20012;-84
2024/04/15 11:02:33;;;;;;;7.65;2.70;;;25.20;79.80;;;;;;6576571;21;20020;-84
2024/04/15 11:05:03;;;;;;;6.45;2.97;;;25.30;79.90;;;;;;6531317;21;20019;-84
2024/04/15 11:07:32;;;;;;;7.20;3.45;;;25.40;80.40;;;;;;6531056;21;20074;-83
2024/04/15 11:10:07;;;;;;;6.35;3.05;;;25.20;79.50;;;;;;6532870;21;20133;-84
2024/04/15 11:12:35;;;;;;;6.80;3.83;;;25.20;81.30;;;;;;6531382;21;20448;-82
2024/04/15 11:15:07;;;;;;;7.00;3.42;;;25.20;80.30;;;;;;6533317;21;20012;-85
2024/04/15 11:17:35;;;;;;;3.17;2.88;;;25.20;80.60;;;;;;6534075;21;20308;-84
2024/04/15 11:20:08;;;;;;;9.25;3.20;;;25.20;79.60;;;;;;6578496;21;20004;-84
2024/04/15 11:22:36;;;;;;;7.85;3.58;;;25.40;79.90;;;;;;6534774;21;20014;-81
2024/04/15 11:25:12;;;;;;;6.50;3.45;;;25.20;79.40;;;;;;6533148;21;20041;-85
2024/04/15 11:27:47;;;;;;;10.10;3.40;;;25.30;78.90;;;;;;6534152;21;20033;-86
2024/04/15 11:30:21;;;;;;;8.35;3.47;;;25.10;78.60;;;;;;6579186;21;20495;-80
2024/04/15 11:32:50;;;;;;;6.97;3.70;;;25.20;79.30;;;;;;6532233;21;20007;-85
2024/04/15 11:35:22;;;;;;;7.60;3.45;;;25.50;81.30;;;;;;6534591;21;20001;-78
2024/04/15 11:37:52;;;;;;;7.85;3.00;;;25.70;79.00;;;;;;6532026;21;20005;-85
2024/04/15 11:40:25;;;;;;;7.95;3.05;;;25.70;79.10;;;;;;6578296;21;20020;-81
2024/04/15 11:42:53;;;;;;;7.32;2.75;;;25.50;78.30;;;;;;6532585;21;20050;-80
2024/04/15 11:45:24;;;;;;;8.05;3.55;;;25.50;77.30;;;;;;6579840;21;20016;-82
2024/04/15 11:47:52;;;;;;;4.78;2.80;;;25.60;77.40;;;;;;6535075;21;20048;-80
2024/04/15 11:50:23;;;;;;;5.03;2.83;;;25.80;78.50;;;;;;6534657;21;20425;-81
2024/04/15 11:52:51;;;;;;;5.35;2.33;;;25.80;77.00;;;;;;6532095;21;20005;-81
2024/04/15 11:55:24;;;;;;;8.88;2.95;;;25.80;76.40;;;;;;6534107;21;20019;-80
2024/04/15 11:57:52;;;;;;;6.32;2.90;;;25.70;75.10;;;;;;6534744;21;20047;-80
2024/04/15 12:00:23;;;;;;;6.90;2.88;;;25.70;74.90;;;;;;6531457;21;20337;-82
2024/04/15 12:02:52;;;;;;;7.95;2.72;;;25.70;75.20;;;;;;6532387;21;20380;-82
2024/04/15 12:05:25;;;;;;;4.85;2.47;;;25.50;75.60;;;;;;6533503;21;20001;-83
2024/04/15 12:07:53;;;;;;;4.72;2.72;;;25.60;74.80;;;;;;6532061;21;20016;-87
2024/04/15 12:10:26;;;;;;;3.75;2.63;;;25.70;74.90;;;;;;6531700;21;20011;-83
2024/04/15 12:12:53;;;;;;;6.53;2.72;;;26.00;76.40;;;;;;6532215;21;20004;-80
2024/04/15 12:15:24;;;;;;;3.30;2.60;;;26.10;76.30;;;;;;6530870;21;20069;-80
2024/04/15 12:17:51;;;;;;;7.93;3.33;;;26.20;74.90;;;;;;6577733;21;20012;-83
2024/04/15 12:20:22;;;;;;;4.28;2.78;;;26.20;74.10;;;;;;6530389;21;20018;-83
2024/04/15 12:22:50;;;;;;;5.65;3.10;;;26.00;74.30;;;;;;6531554;21;20417;-82
2024/04/15 12:25:20;;;;;;;6.70;2.88;;;26.20;74.60;;;;;;6531564;21;20417;-83
2024/04/15 12:27:51;;;;;;;6.97;3.08;;;26.20;75.00;;;;;;6531882;21;20405;-81
2024/04/15 12:30:22;;;;;;;6.72;3.30;;;26.20;75.10;;;;;;6531155;21;20036;-79
2024/04/15 12:32:49;;;;;;;3.53;2.57;;;26.30;75.30;;;;;;6533905;21;20000;-81
2024/04/15 12:35:20;;;;;;;10.55;3.28;;;26.50;74.20;;;;;;6534342;21;20004;-81
2024/04/15 12:37:47;;;;;;;7.00;3.15;;;26.10;74.80;;;;;;6534402;21;20074;-86
2024/04/15 12:40:18;;;;;;;4.95;2.92;;;26.30;75.40;;;;;;6580176;21;20004;-81
2024/04/15 12:42:46;;;;;;;5.73;3.40;;;26.20;75.30;;;;;;6579134;21;20294;-82
2024/04/15 12:45:19;;;;;;;4.07;2.80;;;26.20;75.50;;;;;;6533202;21;20309;-81
2024/04/15 12:47:47;;;;;;;6.60;2.80;;;26.30;75.50;;;;;;6532125;21;20008;-80
2024/04/15 12:50:17;;;;;;;6.78;3.03;;;26.30;75.00;;;;;;6531570;21;20000;-83
2024/04/15 12:52:45;;;;;;;6.95;4.00;;;26.20;75.80;;;;;;6532521;21;20001;-82
2024/04/15 12:55:15;;;;;;;5.90;2.90;;;26.40;75.30;;;;;;6531849;21;20044;-83
2024/04/15 12:57:43;;;;;;;6.10;2.53;;;26.30;75.00;;;;;;6531068;21;20420;-83
2024/04/15 13:00:14;;;;;;;6.30;2.45;;;26.40;74.90;;;;;;6532466;21;20004;-81
2024/04/15 13:02:44;;;;;;;4.72;2.38;;;26.10;73.70;;;;;;6574523;21;20000;-83
2024/04/15 13:05:14;;;;;;;6.38;2.60;;;26.30;75.50;;;;;;6532757;21;20000;-83
2024/04/15 13:07:42;;;;;;;5.60;2.20;;;26.30;74.50;;;;;;6531939;21;20294;-81
2024/04/15 13:10:13;;;;;;;4.95;1.90;;;26.20;73.90;;;;;;6578515;21;20036;-82
2024/04/15 13:12:41;;;;;;;3.58;1.75;;;26.40;71.30;;;;;;6579593;21;20012;-85
2024/04/15 13:15:12;;;;;;;3.28;1.60;;;26.40;70.90;;;;;;6534098;21;20082;-84